Time;durP1;ratioP1;P1;durP2;ratioP2;P2;SDS_P1;SDS_P2;PMS_P1;PMS_P2;Temp;Humidity;BMP_temperature;BMP_pressure;BME280_temperature;BME280_humidity;BME280_pressure;Samples;Min_cycle;Max_cycle;Signal;HPM_P1;HPM_P2
2020/04/15 00:01:29;;;;;;;20.3;7.5;;;;;;;;;;;;;
2020/04/15 00:03:54;;;;;;;19.6;7.3;;;;;;;;;;;;;
2020/04/15 00:06:19;;;;;;;15.3;6.7;;;;;;;;;;;;;
2020/04/15 00:08:44;;;;;;;17.8;7.3;;;;;;;;;;;;;
2020/04/15 00:11:10;;;;;;;19.6;7.3;;;;;;;;;;;;;
2020/04/15 00:13:35;;;;;;;17.4;7;;;;;;;;;;;;;
2020/04/15 00:16:00;;;;;;;18.2;7;;;;;;;;;;;;;
2020/04/15 00:18:25;;;;;;;17.4;6.6;;;;;;;;;;;;;
2020/04/15 00:20:50;;;;;;;18.7;7.4;;;;;;;;;;;;;
2020/04/15 00:23:16;;;;;;;19;8;;;;;;;;;;;;;
2020/04/15 00:25:41;;;;;;;20.6;7.5;;;;;;;;;;;;;
2020/04/15 00:28:06;;;;;;;17.8;7.4;;;;;;;;;;;;;
2020/04/15 00:30:31;;;;;;;20.7;7.5;;;;;;;;;;;;;
2020/04/15 00:32:56;;;;;;;16.1;6.7;;;;;;;;;;;;;
2020/04/15 00:35:22;;;;;;;18.6;6.8;;;;;;;;;;;;;
2020/04/15 00:37:47;;;;;;;18.5;7;;;;;;;;;;;;;
2020/04/15 00:40:12;;;;;;;18.3;6.8;;;;;;;;;;;;;
2020/04/15 00:42:37;;;;;;;18;6.8;;;;;;;;;;;;;
2020/04/15 00:45:02;;;;;;;20.3;7.1;;;;;;;;;;;;;
2020/04/15 00:47:27;;;;;;;18.4;6.8;;;;;;;;;;;;;
2020/04/15 00:49:53;;;;;;;18.8;7;;;;;;;;;;;;;
2020/04/15 00:52:18;;;;;;;20.3;7.3;;;;;;;;;;;;;
2020/04/15 00:54:43;;;;;;;18.9;7.1;;;;;;;;;;;;;
2020/04/15 00:57:08;;;;;;;19.5;6.8;;;;;;;;;;;;;
2020/04/15 00:59:33;;;;;;;13.5;6.1;;;;;;;;;;;;;
2020/04/15 01:01:58;;;;;;;14.7;6.2;;;;;;;;;;;;;
2020/04/15 01:04:23;;;;;;;13.7;6.4;;;;;;;;;;;;;
2020/04/15 01:06:48;;;;;;;17.4;6.7;;;;;;;;;;;;;
2020/04/15 01:09:14;;;;;;;17.3;6.6;;;;;;;;;;;;;
2020/04/15 01:11:39;;;;;;;17;6.3;;;;;;;;;;;;;
2020/04/15 01:14:04;;;;;;;16.8;6.6;;;;;;;;;;;;;
2020/04/15 01:16:29;;;;;;;17;7.1;;;;;;;;;;;;;
2020/04/15 01:18:54;;;;;;;20.4;7.1;;;;;;;;;;;;;
2020/04/15 01:21:20;;;;;;;18.2;7.3;;;;;;;;;;;;;
2020/04/15 01:24:04;;;;;;;17.1;6.7;;;;;;;;;;;;;
2020/04/15 01:26:14;;;;;;;18.2;7.3;;;;;;;;;;;;;
2020/04/15 01:28:55;;;;;;;18.2;7.1;;;;;;;;;;;;;
2020/04/15 01:31:02;;;;;;;16;7;;;;;;;;;;;;;
2020/04/15 01:33:26;;;;;;;19.8;7.3;;;;;;;;;;;;;
2020/04/15 01:35:51;;;;;;;19.7;7;;;;;;;;;;;;;
2020/04/15 01:38:16;;;;;;;21.5;7;;;;;;;;;;;;;
2020/04/15 01:40:41;;;;;;;17.8;6.9;;;;;;;;;;;;;
2020/04/15 01:43:06;;;;;;;17;6.5;;;;;;;;;;;;;
2020/04/15 01:45:32;;;;;;;15.7;6.4;;;;;;;;;;;;;
2020/04/15 01:47:57;;;;;;;14.7;6.3;;;;;;;;;;;;;
2020/04/15 01:50:24;;;;;;;17.5;6.9;;;;;;;;;;;;;
2020/04/15 01:52:49;;;;;;;14.6;6.5;;;;;;;;;;;;;
2020/04/15 01:55:14;;;;;;;16.6;6.6;;;;;;;;;;;;;
2020/04/15 01:57:40;;;;;;;21.1;6.8;;;;;;;;;;;;;
2020/04/15 02:00:05;;;;;;;17.2;7.1;;;;;;;;;;;;;
2020/04/15 02:02:30;;;;;;;20.9;7.4;;;;;;;;;;;;;
2020/04/15 02:04:56;;;;;;;17.1;6.8;;;;;;;;;;;;;
2020/04/15 02:07:21;;;;;;;15.7;6.9;;;;;;;;;;;;;
2020/04/15 02:09:47;;;;;;;17.6;6.7;;;;;;;;;;;;;
2020/04/15 02:12:12;;;;;;;17.8;6.6;;;;;;;;;;;;;
2020/04/15 02:14:37;;;;;;;17.1;7;;;;;;;;;;;;;
2020/04/15 02:17:02;;;;;;;17.4;6.6;;;;;;;;;;;;;
2020/04/15 02:19:27;;;;;;;17.3;7.2;;;;;;;;;;;;;
2020/04/15 02:21:52;;;;;;;20.4;7.2;;;;;;;;;;;;;
2020/04/15 02:24:17;;;;;;;16.4;6.5;;;;;;;;;;;;;
2020/04/15 02:26:43;;;;;;;19.8;6.9;;;;;;;;;;;;;
2020/04/15 02:29:08;;;;;;;20;6.9;;;;;;;;;;;;;
2020/04/15 02:31:33;;;;;;;17.8;7;;;;;;;;;;;;;
2020/04/15 02:33:59;;;;;;;15;6.9;;;;;;;;;;;;;
2020/04/15 02:36:24;;;;;;;17.1;6.7;;;;;;;;;;;;;
2020/04/15 02:38:50;;;;;;;19.1;6.8;;;;;;;;;;;;;
2020/04/15 02:41:16;;;;;;;15.6;6.4;;;;;;;;;;;;;
2020/04/15 02:43:41;;;;;;;17.8;6.9;;;;;;;;;;;;;
2020/04/15 02:46:06;;;;;;;16.8;7;;;;;;;;;;;;;
2020/04/15 02:48:31;;;;;;;15.7;6.9;;;;;;;;;;;;;
2020/04/15 02:50:57;;;;;;;17.3;6.5;;;;;;;;;;;;;
2020/04/15 02:53:22;;;;;;;18.5;7.8;;;;;;;;;;;;;
2020/04/15 02:55:47;;;;;;;17.7;8;;;;;;;;;;;;;
2020/04/15 02:58:12;;;;;;;18.2;8;;;;;;;;;;;;;
2020/04/15 03:00:37;;;;;;;17;7.4;;;;;;;;;;;;;
2020/04/15 03:03:02;;;;;;;19.6;7.7;;;;;;;;;;;;;
2020/04/15 03:05:28;;;;;;;16.8;7.3;;;;;;;;;;;;;
2020/04/15 03:07:54;;;;;;;17.8;7.2;;;;;;;;;;;;;
2020/04/15 03:10:19;;;;;;;16.5;7.4;;;;;;;;;;;;;
2020/04/15 03:12:44;;;;;;;17.5;7;;;;;;;;;;;;;
2020/04/15 03:15:10;;;;;;;18.7;7.2;;;;;;;;;;;;;
2020/04/15 03:17:36;;;;;;;17.1;7.1;;;;;;;;;;;;;
2020/04/15 03:20:01;;;;;;;19.6;7.2;;;;;;;;;;;;;
2020/04/15 03:22:26;;;;;;;18.1;6.9;;;;;;;;;;;;;
2020/04/15 03:24:51;;;;;;;17.3;7;;;;;;;;;;;;;
2020/04/15 03:27:17;;;;;;;17.7;7.2;;;;;;;;;;;;;
2020/04/15 03:29:42;;;;;;;20.6;7;;;;;;;;;;;;;
2020/04/15 03:32:08;;;;;;;17;7.1;;;;;;;;;;;;;
2020/04/15 03:34:55;;;;;;;15.7;7.2;;;;;;;;;;;;;
2020/04/15 03:37:08;;;;;;;21.7;7.7;;;;;;;;;;;;;
2020/04/15 03:39:27;;;;;;;17.6;7.6;;;;;;;;;;;;;
2020/04/15 03:41:52;;;;;;;16.9;7.1;;;;;;;;;;;;;
2020/04/15 03:44:20;;;;;;;18.1;8;;;;;;;;;;;;;
2020/04/15 03:46:42;;;;;;;17.9;7.6;;;;;;;;;;;;;
2020/04/15 03:49:11;;;;;;;16.7;7.5;;;;;;;;;;;;;
2020/04/15 03:51:33;;;;;;;19.3;7.8;;;;;;;;;;;;;
2020/04/15 03:53:53;;;;;;;22.5;8.6;;;;;;;;;;;;;
2020/04/15 03:56:18;;;;;;;17;7.7;;;;;;;;;;;;;
2020/04/15 03:58:44;;;;;;;18.2;8;;;;;;;;;;;;;
2020/04/15 04:02:30;;;;;;;22.4;7.8;;;;;;;0.09;82.27246;943.3362;;;;
2020/04/15 04:04:55;;;;;;;18;7.4;;;;;;;0.03;82.48047;943.3503;;;;
2020/04/15 04:07:20;;;;;;;20.7;8.2;;;;;;;0.05;82.69824;943.416;;;;
2020/04/15 04:09:45;;;;;;;23.3;8;;;;;;;0.07;82.80176;943.5055;;;;
2020/04/15 04:12:10;;;;;;;31.6;10.7;;;;;;;-0.04;83.0918;943.4324;;;;
2020/04/15 04:14:35;;;;;;;41.1;14.9;;;;;;;0.07;82.60156;943.4185;;;;
2020/04/15 04:17:00;;;;;;;33.4;13.5;;;;;;;0.18;82.1543;943.3752;;;;
2020/04/15 04:19:25;;;;;;;24.3;10.4;;;;;;;-0.06;82.85449;943.43;;;;
2020/04/15 04:21:50;;;;;;;23.8;9.9;;;;;;;-0.19;83.59668;943.5085;;;;
2020/04/15 04:24:17;;;;;;;30.2;11.5;;;;;;;-0.19;83.73145;943.5502;;;;
2020/04/15 04:26:42;;;;;;;27.5;11.6;;;;;;;-0.18;83.64258;943.5661;;;;
2020/04/15 04:29:08;;;;;;;22;9.8;;;;;;;-0.11;83.53418;943.5817;;;;
2020/04/15 04:31:33;;;;;;;23.7;11.1;;;;;;;-0.31;84.0293;943.5831;;;;
2020/04/15 04:33:58;;;;;;;22.2;9.9;;;;;;;-0.2;83.68359;943.6028;;;;
2020/04/15 04:36:23;;;;;;;28.5;15.4;;;;;;;-0.11;83.44531;943.5411;;;;
2020/04/15 04:38:48;;;;;;;22.9;10.2;;;;;;;-0.07;82.90918;943.7266;;;;
2020/04/15 04:41:14;;;;;;;20.2;8.5;;;;;;;-0.17;83.15625;943.7253;;;;
2020/04/15 04:43:39;;;;;;;34.9;23.5;;;;;;;-0.08;82.96289;943.7598;;;;
2020/04/15 04:46:04;;;;;;;23.1;7.5;;;;;;;-0.12;82.67578;943.8973;;;;
2020/04/15 04:48:29;;;;;;;18.6;9.7;;;;;;;-0.21;83.33691;943.8889;;;;
2020/04/15 04:50:56;;;;;;;21.7;8.3;;;;;;;-0.23;83.41113;944.0918;;;;
2020/04/15 04:53:21;;;;;;;18.7;7.6;;;;;;;-0.15;82.99316;944.1172;;;;
2020/04/15 04:55:47;;;;;;;20.6;8.4;;;;;;;-0.29;83.83301;944.046;;;;
2020/04/15 04:58:12;;;;;;;19.8;8.5;;;;;;;-0.24;84.08887;944.2073;;;;
2020/04/15 05:00:39;;;;;;;26.9;9.7;;;;;;;-0.01;83.6543;944.2106;;;;
2020/04/15 05:03:04;;;;;;;24.1;8.7;;;;;;;0.25;82.6123;944.3205;;;;
2020/04/15 05:05:30;;;;;;;19.1;8;;;;;;;0.3;81.86719;944.3829;;;;
2020/04/15 05:07:55;;;;;;;24.9;8.9;;;;;;;0.46;81.18262;944.4294;;;;
2020/04/15 05:10:22;;;;;;;29.7;9;;;;;;;0.59;80.40527;944.3915;;;;
2020/04/15 05:12:47;;;;;;;18.6;7.9;;;;;;;0.55;80.30762;944.2755;;;;
2020/04/15 05:15:14;;;;;;;24.9;8;;;;;;;0.63;79.94434;944.259;;;;
2020/04/15 05:17:39;;;;;;;18.7;7.8;;;;;;;0.41;80.70605;944.1941;;;;
2020/04/15 05:20:05;;;;;;;30.5;8.8;;;;;;;0.39;80.95898;944.1262;;;;
2020/04/15 05:22:30;;;;;;;23.8;7;;;;;;;0.4;81.02734;944.1014;;;;
2020/04/15 05:24:56;;;;;;;18.2;6.6;;;;;;;0.44;80.82422;944.0134;;;;
2020/04/15 05:27:21;;;;;;;21.8;7.1;;;;;;;0.41;80.80469;943.9738;;;;
2020/04/15 05:29:48;;;;;;;18.3;6.4;;;;;;;0.23;81.8418;943.8939;;;;
2020/04/15 05:32:13;;;;;;;20.1;7.7;;;;;;;0.37;81.75781;943.8722;;;;
2020/04/15 05:34:39;;;;;;;21.7;8;;;;;;;0.58;81.2627;943.8348;;;;
2020/04/15 05:37:04;;;;;;;19.6;6.7;;;;;;;0.83;80.16016;943.8903;;;;
2020/04/15 05:39:31;;;;;;;19.3;7.4;;;;;;;0.95;79.5791;943.8803;;;;
2020/04/15 05:41:56;;;;;;;20.1;7.1;;;;;;;1.29;79.12988;943.8639;;;;
2020/04/15 05:44:22;;;;;;;20;9.3;;;;;;;1.97;76.75195;943.7813;;;;
2020/04/15 05:46:47;;;;;;;14.6;5.9;;;;;;;2.7;73.3418;943.72;;;;
2020/04/15 05:49:13;;;;;;;12.2;5.3;;;;;;;3.04;69.91113;943.7484;;;;
2020/04/15 05:51:39;;;;;;;12.9;4.9;;;;;;;3.35;69.38867;943.6998;;;;
2020/04/15 05:54:04;;;;;;;14.6;4.7;;;;;;;4.09;66.91016;943.5463;;;;
2020/04/15 05:56:30;;;;;;;15.6;4.8;;;;;;;4.83;64.53613;943.6267;;;;
2020/04/15 05:58:55;;;;;;;10.2;4.8;;;;;;;5.72;61.38672;943.545;;;;
2020/04/15 06:01:20;;;;;;;10.8;4.6;;;;;;;6.63;58.04395;943.5131;;;;
2020/04/15 06:03:45;;;;;;;15.8;5.3;;;;;;;7.69;54.78418;943.5097;;;;
2020/04/15 06:06:10;;;;;;;12;4.7;;;;;;;8.28;52.52051;943.4539;;;;
2020/04/15 06:08:35;;;;;;;12.7;4.4;;;;;;;9.28;49.22754;943.4785;;;;
2020/04/15 06:11:01;;;;;;;12.2;4.1;;;;;;;10.13;47.86426;943.413;;;;
2020/04/15 06:13:26;;;;;;;12.2;3.8;;;;;;;11.32;44.64355;943.5491;;;;
2020/04/15 06:15:51;;;;;;;10.8;4.2;;;;;;;11.43;42.65332;943.5678;;;;
2020/04/15 06:18:16;;;;;;;14.4;4.4;;;;;;;11.12;42.59961;943.5338;;;;
2020/04/15 06:20:41;;;;;;;9.4;4;;;;;;;10.43;44.98535;943.5475;;;;
2020/04/15 06:23:06;;;;;;;14.5;4.2;;;;;;;10.44;44.83887;943.5334;;;;
2020/04/15 06:25:31;;;;;;;9.9;3.7;;;;;;;10.62;44.78906;943.6294;;;;
2020/04/15 06:27:57;;;;;;;11.6;4.1;;;;;;;11.98;41.67578;943.5984;;;;
2020/04/15 06:30:22;;;;;;;10.1;3.8;;;;;;;11.65;41.45996;943.5991;;;;
2020/04/15 06:32:48;;;;;;;10.3;3.9;;;;;;;12.67;39.90625;943.7008;;;;
2020/04/15 06:35:13;;;;;;;12.6;4.1;;;;;;;12.98;37.81055;943.7912;;;;
2020/04/15 06:37:39;;;;;;;10.8;3.5;;;;;;;12.63;37.86133;943.8099;;;;
2020/04/15 06:40:04;;;;;;;12.5;3.8;;;;;;;11.9;39.45801;943.785;;;;
2020/04/15 06:42:31;;;;;;;9.5;3.5;;;;;;;13.01;38.62891;943.7173;;;;
2020/04/15 06:44:56;;;;;;;11.2;4.6;;;;;;;12.51;38.33203;943.7397;;;;
2020/04/15 06:47:23;;;;;;;10.2;3.3;;;;;;;12.77;39.36523;943.7881;;;;
2020/04/15 06:49:48;;;;;;;8.9;3.5;;;;;;;12.54;36.78516;943.7478;;;;
2020/04/15 06:52:14;;;;;;;10.3;3.4;;;;;;;12.29;38.43848;943.8215;;;;
2020/04/15 06:54:39;;;;;;;10.9;4.1;;;;;;;12.89;37.5957;943.8311;;;;
2020/04/15 06:57:06;;;;;;;12.4;3.6;;;;;;;12.54;38.61035;943.8541;;;;
2020/04/15 06:59:31;;;;;;;7.6;3.4;;;;;;;11.99;39.44336;943.878;;;;
2020/04/15 07:01:58;;;;;;;10.5;3.6;;;;;;;10.73;41.21289;943.8215;;;;
2020/04/15 07:04:23;;;;;;;10.1;3.7;;;;;;;10.87;41.58008;943.7709;;;;
2020/04/15 07:06:48;;;;;;;13.5;3.7;;;;;;;11.67;40.70703;943.7701;;;;
2020/04/15 07:09:16;;;;;;;10.9;3.7;;;;;;;11.68;38.73926;943.8253;;;;
2020/04/15 07:11:41;;;;;;;8.3;3.4;;;;;;;12.03;40.13379;943.7606;;;;
2020/04/15 07:14:06;;;;;;;9.8;3.1;;;;;;;13.48;36.47461;943.666;;;;
2020/04/15 07:16:32;;;;;;;10.2;3.5;;;;;;;13.89;36.24414;943.5961;;;;
2020/04/15 07:18:56;;;;;;;15.3;4.6;;;;;;;14.83;34.02832;943.5715;;;;
2020/04/15 07:21:21;;;;;;;10.8;3.3;;;;;;;14.98;32.6084;943.5123;;;;
2020/04/15 07:23:46;;;;;;;10.3;3.1;;;;;;;15.03;31.9209;943.5023;;;;
2020/04/15 07:26:16;;;;;;;14.4;3.4;;;;;;;15.74;30.55078;943.4612;;;;
2020/04/15 07:28:39;;;;;;;7.3;3.2;;;;;;;14.74;31.1377;943.567;;;;
2020/04/15 07:31:05;;;;;;;9.3;3;;;;;;;16.36;29.81934;943.481;;;;
2020/04/15 07:33:30;;;;;;;8;2.5;;;;;;;17.77;28.96289;943.4421;;;;
2020/04/15 07:35:57;;;;;;;7.2;2.7;;;;;;;19.24;25.41406;943.384;;;;
2020/04/15 07:38:22;;;;;;;7.6;2.9;;;;;;;19.1;25.20801;943.4077;;;;
2020/04/15 07:40:47;;;;;;;6.9;2.8;;;;;;;18.98;27.44824;943.4277;;;;
2020/04/15 07:43:12;;;;;;;9.2;2.8;;;;;;;20.1;25.44043;943.3713;;;;
2020/04/15 07:45:38;;;;;;;7.9;2.7;;;;;;;17.05;28.69531;943.3578;;;;
2020/04/15 07:48:03;;;;;;;8.1;2.8;;;;;;;18.03;27.13379;943.4295;;;;
2020/04/15 07:50:28;;;;;;;5.5;2.5;;;;;;;20;25.43555;943.2985;;;;
2020/04/15 07:52:53;;;;;;;6.8;2.8;;;;;;;19.57;25.0957;943.3234;;;;
2020/04/15 07:55:19;;;;;;;10.1;2.8;;;;;;;19.9;25.68555;943.2777;;;;
2020/04/15 07:57:44;;;;;;;5.7;2.4;;;;;;;19.27;23.54102;943.2939;;;;
2020/04/15 08:00:10;;;;;;;7.8;2.5;;;;;;;18.65;25.81152;943.3359;;;;
2020/04/15 08:02:35;;;;;;;5.6;2.5;;;;;;;18.78;25.95801;943.3867;;;;
2020/04/15 08:05:00;;;;;;;6.5;2.4;;;;;;;19.64;24.84277;943.2838;;;;
2020/04/15 08:07:26;;;;;;;5.2;2.2;;;;;;;21.2;23.65527;943.2444;;;;
2020/04/15 08:09:51;;;;;;;7.2;2.3;;;;;;;21.4;22.23828;943.2271;;;;
2020/04/15 08:12:16;;;;;;;4.9;2.3;;;;;;;20.91;21.72266;943.2419;;;;
2020/04/15 08:14:41;;;;;;;5.7;2.4;;;;;;;19.99;22.94824;943.2712;;;;
2020/04/15 08:17:07;;;;;;;6.9;2.9;;;;;;;20.29;22.61426;943.313;;;;
2020/04/15 08:19:32;;;;;;;5.3;2.5;;;;;;;20.39;22.12891;943.2891;;;;
2020/04/15 08:21:57;;;;;;;7.2;2.5;;;;;;;19.67;23.62012;943.2614;;;;
2020/04/15 08:24:22;;;;;;;6.9;2.5;;;;;;;19.52;23.78711;943.2811;;;;
2020/04/15 08:26:47;;;;;;;7;3;;;;;;;19.17;25.375;943.2871;;;;
2020/04/15 08:29:13;;;;;;;10;3.2;;;;;;;18.47;24.91699;943.3758;;;;
2020/04/15 08:31:38;;;;;;;6.8;2.4;;;;;;;17.46;27.26074;943.4515;;;;
2020/04/15 08:34:03;;;;;;;8.6;2.7;;;;;;;16.56;29.60156;943.4545;;;;
2020/04/15 08:36:29;;;;;;;7.5;2.8;;;;;;;16.4;30.37695;943.4575;;;;
2020/04/15 08:38:54;;;;;;;7.3;2.6;;;;;;;18.13;28.34766;943.5146;;;;
2020/04/15 08:41:21;;;;;;;5.6;2.2;;;;;;;18.67;28.34863;943.4793;;;;
2020/04/15 08:43:46;;;;;;;7.8;2.1;;;;;;;20.79;24.06641;943.4506;;;;
2020/04/15 08:46:17;;;;;;;6.3;2.2;;;;;;;23.71;19.78906;943.4225;;;;
2020/04/15 08:48:43;;;;;;;6;2.1;;;;;;;24.66;20.58594;943.3895;;;;
2020/04/15 08:51:08;;;;;;;6.7;2.4;;;;;;;23.22;21.64746;943.4185;;;;
2020/04/15 08:53:33;;;;;;;8;2.5;;;;;;;24.62;22.05762;943.4403;;;;
2020/04/15 08:55:58;;;;;;;5.4;2.1;;;;;;;25.44;18.7793;943.3884;;;;
2020/04/15 08:58:25;;;;;;;7.6;2.1;;;;;;;25.65;18.58691;943.3933;;;;
2020/04/15 09:00:50;;;;;;;5.6;2;;;;;;;26.4;17.65918;943.3862;;;;
2020/04/15 09:03:15;;;;;;;4.8;1.9;;;;;;;24.06;18.91016;943.3511;;;;
2020/04/15 09:05:41;;;;;;;4.5;2;;;;;;;23.37;20.10352;943.3375;;;;
2020/04/15 09:08:06;;;;;;;5.6;2.3;;;;;;;23.63;21.30273;943.2919;;;;
2020/04/15 09:10:31;;;;;;;5.5;2.1;;;;;;;24.07;19.71094;943.2891;;;;
2020/04/15 09:12:56;;;;;;;6.2;2.1;;;;;;;23.47;18.88477;943.2713;;;;
2020/04/15 09:15:21;;;;;;;5;1.9;;;;;;;23.53;20.28711;943.248;;;;
2020/04/15 09:17:46;;;;;;;5.7;2;;;;;;;23.96;19.8125;943.1118;;;;
2020/04/15 09:20:12;;;;;;;5.5;2.1;;;;;;;24.37;19.47656;943.1258;;;;
2020/04/15 09:22:37;;;;;;;4.9;2.1;;;;;;;25.07;20.99414;943.1809;;;;
2020/04/15 09:25:06;;;;;;;7;2.2;;;;;;;24.59;20.94824;943.1369;;;;
2020/04/15 09:27:30;;;;;;;5.4;2;;;;;;;25.38;19.50977;943.1475;;;;
2020/04/15 09:29:57;;;;;;;7;2;;;;;;;25.86;19.28223;943.1167;;;;
2020/04/15 09:32:22;;;;;;;5.6;2.1;;;;;;;26.34;19.17285;943.1157;;;;
2020/04/15 09:34:47;;;;;;;5.4;2;;;;;;;26.82;18.71875;943.1674;;;;
2020/04/15 09:37:12;;;;;;;5.5;2;;;;;;;25.47;20.98926;943.2155;;;;
2020/04/15 09:39:38;;;;;;;7;2.3;;;;;;;24.25;21.62695;943.1445;;;;
2020/04/15 09:42:03;;;;;;;5.8;2;;;;;;;24.86;20.94922;943.1591;;;;
2020/04/15 09:44:31;;;;;;;4.6;1.9;;;;;;;24.72;20.83594;943.169;;;;
2020/04/15 09:46:56;;;;;;;5.6;2;;;;;;;25.14;21.00977;943.218;;;;
2020/04/15 09:49:21;;;;;;;4.7;1.8;;;;;;;25.49;20.88379;943.1916;;;;
2020/04/15 09:51:46;;;;;;;5.3;2;;;;;;;24.96;21.31934;943.1781;;;;
2020/04/15 09:54:12;;;;;;;6.5;2;;;;;;;24.62;20.86719;943.2261;;;;
2020/04/15 09:56:38;;;;;;;5.6;2;;;;;;;24.26;21.66309;943.1735;;;;
2020/04/15 09:59:04;;;;;;;6.1;1.9;;;;;;;23.66;22.7041;943.207;;;;
2020/04/15 10:01:29;;;;;;;5.4;1.8;;;;;;;23.2;23.18652;943.2191;;;;
2020/04/15 10:03:56;;;;;;;3.9;1.9;;;;;;;22.67;25.04883;943.1376;;;;
2020/04/15 10:06:21;;;;;;;5.6;2.1;;;;;;;23.15;23.68945;943.1264;;;;
2020/04/15 10:08:47;;;;;;;5.3;2.1;;;;;;;23.91;22.24609;943.0843;;;;
2020/04/15 10:11:12;;;;;;;5;2.2;;;;;;;24.32;21.91309;943.0559;;;;
2020/04/15 10:13:38;;;;;;;7.3;2.3;;;;;;;23.72;22.58984;943.115;;;;
2020/04/15 10:16:03;;;;;;;5.3;2.1;;;;;;;23.22;24.09277;943.1371;;;;
2020/04/15 10:18:29;;;;;;;5.3;2.2;;;;;;;22.97;25.41797;943.0667;;;;
2020/04/15 10:20:54;;;;;;;5;2.1;;;;;;;22.3;24.34766;943.027;;;;
2020/04/15 10:23:21;;;;;;;3.8;2;;;;;;;21.89;25.67285;943.0656;;;;
2020/04/15 10:25:46;;;;;;;4.7;1.9;;;;;;;21.99;24.33105;943.0184;;;;
2020/04/15 10:28:13;;;;;;;5.8;2.3;;;;;;;21.11;26.90234;943.0602;;;;
2020/04/15 10:30:38;;;;;;;8.4;2.5;;;;;;;21.15;27.61816;943.0196;;;;
2020/04/15 10:33:04;;;;;;;7.9;2.5;;;;;;;20.74;28.37598;943.0592;;;;
2020/04/15 10:35:29;;;;;;;7.3;2.4;;;;;;;21.18;26.79004;943.052;;;;
2020/04/15 10:37:56;;;;;;;7.4;2.7;;;;;;;20.87;27.99805;943.1125;;;;
2020/04/15 10:40:22;;;;;;;7.4;2.9;;;;;;;20.83;28.1709;943.1108;;;;
2020/04/15 10:42:48;;;;;;;8.2;2.3;;;;;;;20.75;28.63379;943.0419;;;;
2020/04/15 10:45:13;;;;;;;6.4;2.6;;;;;;;20.69;27.77637;943.0061;;;;
2020/04/15 10:47:40;;;;;;;7.6;2.6;;;;;;;21.01;26.5918;943.0669;;;;
2020/04/15 10:50:05;;;;;;;5.9;2.7;;;;;;;20.32;30.14746;942.9781;;;;
2020/04/15 10:52:31;;;;;;;7;2.6;;;;;;;19.85;29.90527;942.9764;;;;
2020/04/15 10:54:56;;;;;;;5.1;2.5;;;;;;;19.74;30.62109;942.9869;;;;
2020/04/15 10:57:29;;;;;;;6.1;2.4;;;;;;;20.57;27.27832;943.0284;;;;
2020/04/15 10:59:49;;;;;;;5.4;2.6;;;;;;;20.17;28.50293;943.0158;;;;
2020/04/15 11:02:14;;;;;;;6.2;2.5;;;;;;;19.44;30.11035;943.0281;;;;
2020/04/15 11:04:39;;;;;;;7.8;2.7;;;;;;;19.98;29.3418;943.0572;;;;
2020/04/15 11:07:04;;;;;;;6.3;2.7;;;;;;;20.2;28.21289;943.0661;;;;
2020/04/15 11:09:29;;;;;;;6.9;2.7;;;;;;;20.1;29.78125;943.1119;;;;
2020/04/15 11:11:56;;;;;;;7.3;2.8;;;;;;;19.55;29.76855;943.0789;;;;
2020/04/15 11:14:21;;;;;;;6.5;2.8;;;;;;;19.65;29.66992;943.1172;;;;
2020/04/15 11:16:47;;;;;;;5.8;2.5;;;;;;;19.92;28.5332;943.0308;;;;
2020/04/15 11:19:13;;;;;;;6.4;2.4;;;;;;;20.45;27.72656;942.9939;;;;
2020/04/15 11:21:39;;;;;;;7.1;2.9;;;;;;;20.7;27.47266;943.0237;;;;
2020/04/15 11:24:05;;;;;;;6;2.5;;;;;;;20.64;28.87207;942.9892;;;;
2020/04/15 11:26:31;;;;;;;5.9;2.6;;;;;;;20.14;29.73828;942.9913;;;;
2020/04/15 11:28:56;;;;;;;5.8;2.8;;;;;;;20.36;29.35547;943.0203;;;;
2020/04/15 11:31:23;;;;;;;7.4;2.7;;;;;;;20.76;29.82715;943.0238;;;;
2020/04/15 11:33:48;;;;;;;5.9;2.4;;;;;;;20.01;28.04883;942.945;;;;
2020/04/15 11:36:15;;;;;;;6.8;2.4;;;;;;;20.3;28.80273;943.0044;;;;
2020/04/15 11:38:40;;;;;;;5.2;2.6;;;;;;;20.11;28.68555;942.9289;;;;
2020/04/15 11:41:07;;;;;;;6;2.3;;;;;;;20.16;27.50977;942.8606;;;;
2020/04/15 11:43:32;;;;;;;5.8;2.5;;;;;;;20.64;27.77441;942.9026;;;;
2020/04/15 11:45:58;;;;;;;7.6;2.2;;;;;;;21.86;25.36621;942.8945;;;;
2020/04/15 11:48:23;;;;;;;6.1;2.4;;;;;;;22.27;24.86133;942.8226;;;;
2020/04/15 11:50:50;;;;;;;6;2.2;;;;;;;23.43;24.71484;942.7889;;;;
2020/04/15 11:53:15;;;;;;;5.3;2.2;;;;;;;24.33;22.53809;942.7863;;;;
2020/04/15 11:55:41;;;;;;;5.7;2.2;;;;;;;23.95;24.07324;942.8444;;;;
2020/04/15 11:58:06;;;;;;;5.7;2.1;;;;;;;24.56;22.82129;942.8275;;;;
2020/04/15 12:00:31;;;;;;;4.6;2;;;;;;;24.46;22.5332;942.824;;;;
2020/04/15 12:02:56;;;;;;;7;2.5;;;;;;;23.84;24.5498;942.8028;;;;
2020/04/15 12:05:22;;;;;;;7.4;2.6;;;;;;;23.31;25.06152;942.7747;;;;
2020/04/15 12:07:48;;;;;;;6.1;2.4;;;;;;;22.74;26.79004;942.7939;;;;
2020/04/15 12:10:12;;;;;;;6.7;2.3;;;;;;;23.73;23.48438;942.6631;;;;
2020/04/15 12:12:39;;;;;;;6.6;2.3;;;;;;;23.2;23.86816;942.7103;;;;
2020/04/15 12:15:04;;;;;;;7.3;2.4;;;;;;;22.64;24.21289;942.6078;;;;
2020/04/15 12:17:31;;;;;;;5.9;2.1;;;;;;;23.19;24.14941;942.6473;;;;
2020/04/15 12:19:56;;;;;;;5.5;2.2;;;;;;;23.92;23.05957;942.6697;;;;
2020/04/15 12:22:23;;;;;;;4.1;1.9;;;;;;;23.98;22.17871;942.6353;;;;
2020/04/15 12:25:29;;;;;;;4.7;1.9;;;;;;;23.17;24.87695;942.623;;;;
2020/04/15 12:27:54;;;;;;;4.9;2.3;;;;;;;22.16;25.62891;942.642;;;;
2020/04/15 12:30:27;;;;;;;4.8;2;;;;;;;22.56;24.97168;942.5895;;;;
2020/04/15 12:32:52;;;;;;;5.4;2.1;;;;;;;21.42;27.13184;942.61;;;;
2020/04/15 12:35:25;;;;;;;5.4;2.2;;;;;;;21.11;28.10742;942.5638;;;;
2020/04/15 12:37:50;;;;;;;8;2.7;;;;;;;20.91;30.6543;942.5942;;;;
2020/04/15 12:40:15;;;;;;;5.8;2.2;;;;;;;21.08;29.33301;942.6049;;;;
2020/04/15 12:42:46;;;;;;;5.6;2.2;;;;;;;21.58;27.87891;942.5277;;;;
2020/04/15 12:45:37;;;;;;;4.9;2.2;;;;;;;21.6;27.82227;942.5377;;;;
2020/04/15 12:48:02;;;;;;;6.3;2.3;;;;;;;21.63;28.91406;942.5136;;;;
2020/04/15 12:50:28;;;;;;;6.4;2.1;;;;;;;21.96;27.55176;942.4758;;;;
2020/04/15 12:52:53;;;;;;;5.2;1.9;;;;;;;21.4;29.03906;942.4096;;;;
2020/04/15 12:55:18;;;;;;;8.6;2.4;;;;;;;21.44;28.16309;942.3571;;;;
2020/04/15 12:57:54;;;;;;;8.1;2.1;;;;;;;21.13;29.94434;942.3608;;;;
2020/04/15 13:00:20;;;;;;;5.1;2.1;;;;;;;21.31;27.16016;942.3553;;;;
2020/04/15 13:02:46;;;;;;;5.1;2;;;;;;;21.62;26.38281;942.2947;;;;
2020/04/15 13:05:11;;;;;;;4.3;2.1;;;;;;;21.74;27.22168;942.2472;;;;
2020/04/15 13:07:36;;;;;;;4.7;2.1;;;;;;;21.46;27.62598;942.2424;;;;
2020/04/15 13:10:01;;;;;;;5.9;2.1;;;;;;;21.01;28.48633;942.213;;;;
2020/04/15 13:12:26;;;;;;;5.2;2.1;;;;;;;20.64;29.35156;942.1581;;;;
2020/04/15 13:14:51;;;;;;;6;1.9;;;;;;;20.71;30.61719;942.2537;;;;
2020/04/15 13:17:16;;;;;;;4.4;2;;;;;;;20.74;29.12402;942.1672;;;;
2020/04/15 13:19:41;;;;;;;5;1.9;;;;;;;20.79;26.82422;942.1887;;;;
2020/04/15 13:22:08;;;;;;;5.3;2.1;;;;;;;20.35;29.88086;942.2115;;;;
2020/04/15 13:24:33;;;;;;;6;2;;;;;;;20.05;28.89258;942.1343;;;;
2020/04/15 13:26:59;;;;;;;5.7;2.2;;;;;;;19.85;30.20801;942.0598;;;;
2020/04/15 13:29:24;;;;;;;6;1.9;;;;;;;19.58;31.04102;942.0256;;;;
2020/04/15 13:31:51;;;;;;;4.6;1.7;;;;;;;19.38;29.83789;942.0427;;;;
2020/04/15 13:34:16;;;;;;;3.7;1.7;;;;;;;19.56;29.2207;942.0011;;;;
2020/04/15 13:36:42;;;;;;;4.8;2;;;;;;;19.43;30.20313;941.9871;;;;
2020/04/15 13:39:07;;;;;;;5;2;;;;;;;19.55;28.87109;941.9261;;;;
2020/04/15 13:41:33;;;;;;;5.3;2.2;;;;;;;19.41;30.35254;941.9436;;;;
2020/04/15 13:43:58;;;;;;;5;1.9;;;;;;;19.55;30.86328;941.9399;;;;
2020/04/15 13:46:25;;;;;;;5;1.8;;;;;;;19.73;29.8623;941.8994;;;;
2020/04/15 13:48:50;;;;;;;4.6;1.8;;;;;;;19.73;27.71582;941.8462;;;;
2020/04/15 13:51:15;;;;;;;5.4;2;;;;;;;19.71;31.76074;941.8619;;;;
2020/04/15 13:53:42;;;;;;;7.4;1.9;;;;;;;19.95;30.18066;941.8169;;;;
2020/04/15 13:56:07;;;;;;;5.8;2.1;;;;;;;19.82;30.35742;941.7927;;;;
2020/04/15 13:58:33;;;;;;;5.7;1.8;;;;;;;19.84;29.78711;941.7464;;;;
2020/04/15 14:00:58;;;;;;;4.7;1.9;;;;;;;19.79;30.2627;941.7551;;;;
2020/04/15 14:03:24;;;;;;;5.6;1.9;;;;;;;19.68;31.02441;941.663;;;;
2020/04/15 14:05:49;;;;;;;6.9;2.1;;;;;;;19.57;30.5625;941.6696;;;;
2020/04/15 14:08:15;;;;;;;5.9;2.2;;;;;;;19.39;30.8418;941.5756;;;;
2020/04/15 14:10:40;;;;;;;7.1;2.3;;;;;;;19.38;31.41113;941.6178;;;;
2020/04/15 14:13:07;;;;;;;5.9;2.2;;;;;;;19.56;31.58691;941.5559;;;;
2020/04/15 14:15:32;;;;;;;7.1;2.2;;;;;;;19.63;31.02051;941.521;;;;
2020/04/15 14:17:58;;;;;;;7.7;2.1;;;;;;;19.7;31.6084;941.5438;;;;
2020/04/15 14:20:24;;;;;;;5.1;2;;;;;;;19.79;30.49512;941.5266;;;;
2020/04/15 14:22:50;;;;;;;6.5;2.1;;;;;;;19.83;30.27734;941.4783;;;;
2020/04/15 14:25:15;;;;;;;6.2;2.1;;;;;;;19.91;29.99023;941.5211;;;;
2020/04/15 14:27:41;;;;;;;5.6;1.9;;;;;;;19.76;29.63086;941.486;;;;
2020/04/15 14:30:06;;;;;;;6.2;2;;;;;;;19.75;30.75;941.5063;;;;
2020/04/15 14:32:32;;;;;;;6;2.2;;;;;;;19.59;31.53125;941.4778;;;;
2020/04/15 14:34:57;;;;;;;5.4;2.1;;;;;;;19.62;31.25391;941.4433;;;;
2020/04/15 14:37:23;;;;;;;5.9;2.2;;;;;;;19.59;30.58789;941.3856;;;;
2020/04/15 14:39:48;;;;;;;8.3;1.9;;;;;;;19.59;30.73926;941.5229;;;;
2020/04/15 14:42:14;;;;;;;6;1.9;;;;;;;19.5;30.94141;941.527;;;;
2020/04/15 14:44:40;;;;;;;6.2;1.9;;;;;;;19.46;30.68262;941.5261;;;;
2020/04/15 14:47:06;;;;;;;4.9;2;;;;;;;19.39;30.79492;941.4545;;;;
2020/04/15 14:49:31;;;;;;;5.9;2.3;;;;;;;19.21;31.83008;941.4334;;;;
2020/04/15 14:51:58;;;;;;;4;2.1;;;;;;;19.28;31.93945;941.4058;;;;
2020/04/15 14:54:23;;;;;;;4.8;2;;;;;;;19.21;30.91016;941.3705;;;;
2020/04/15 14:56:49;;;;;;;6.9;2.1;;;;;;;19.12;31.49707;941.2856;;;;
2020/04/15 14:59:14;;;;;;;9.4;2.3;;;;;;;18.95;32.23047;941.316;;;;
2020/04/15 15:01:40;;;;;;;6.9;2.2;;;;;;;18.96;32.41699;941.2852;;;;
2020/04/15 15:04:05;;;;;;;4.7;2;;;;;;;18.81;32.65039;941.2866;;;;
2020/04/15 15:06:30;;;;;;;5.1;1.9;;;;;;;18.82;33.19727;941.218;;;;
2020/04/15 15:08:55;;;;;;;5.9;2.1;;;;;;;18.83;32.02344;941.1567;;;;
2020/04/15 15:11:20;;;;;;;7.3;1.9;;;;;;;18.81;32.98828;941.1552;;;;
2020/04/15 15:13:45;;;;;;;5.9;2.1;;;;;;;18.9;32.19141;941.1144;;;;
2020/04/15 15:16:10;;;;;;;6.7;2.5;;;;;;;18.75;34.03027;941.1046;;;;
2020/04/15 15:18:36;;;;;;;5.8;1.9;;;;;;;18.85;32.54883;941.1418;;;;
2020/04/15 15:21:02;;;;;;;4.1;2.1;;;;;;;18.9;32.32031;941.0974;;;;
2020/04/15 15:23:27;;;;;;;7.5;2.1;;;;;;;18.82;33.63965;941.0751;;;;
2020/04/15 15:25:53;;;;;;;5.5;2.1;;;;;;;18.75;34.12305;941.1111;;;;
2020/04/15 15:28:18;;;;;;;5.3;2.1;;;;;;;18.73;34.51758;941.0823;;;;